createdAt,value
2023-02-13T00:01:37.542Z,20.65
2023-02-13T00:06:44.834Z,20.86
2023-02-13T00:11:52.033Z,21.43
2023-02-13T00:16:59.197Z,21.37
2023-02-13T00:22:06.383Z,21.37
2023-02-13T00:27:13.625Z,21.52
2023-02-13T00:32:20.847Z,21.54
2023-02-13T00:37:27.990Z,21.43
2023-02-13T00:42:35.211Z,21.25
2023-02-13T00:47:42.381Z,21.13
2023-02-13T00:52:49.581Z,20.96
2023-02-13T00:57:56.849Z,20.95
2023-02-13T01:03:04.051Z,20.89
2023-02-13T01:08:11.201Z,20.80
2023-02-13T01:13:18.451Z,20.77
2023-02-13T01:18:25.600Z,20.65
2023-02-13T01:23:32.845Z,20.75
2023-02-13T01:28:40.154Z,20.77
2023-02-13T01:33:47.245Z,20.84
2023-02-13T01:38:54.426Z,20.87
2023-02-13T01:44:01.664Z,20.98
2023-02-13T01:49:08.992Z,21.07
2023-02-13T01:54:16.403Z,21.18
2023-02-13T01:59:23.605Z,21.25
2023-02-13T02:04:30.768Z,21.31
2023-02-13T02:09:37.941Z,21.39
2023-02-13T02:14:45.264Z,21.42
2023-02-13T02:19:52.387Z,21.51
2023-02-13T02:24:59.581Z,21.54
2023-02-13T02:30:06.850Z,21.55
2023-02-13T02:35:14.080Z,21.61
2023-02-13T02:40:21.368Z,21.62
2023-02-13T02:45:28.621Z,21.59
2023-02-13T02:50:35.819Z,21.61
2023-02-13T02:55:43.019Z,21.64
2023-02-13T03:00:50.279Z,21.70
2023-02-13T03:05:57.461Z,21.78
2023-02-13T03:11:04.663Z,21.79
2023-02-13T03:16:12.135Z,21.93
2023-02-13T03:21:19.222Z,21.90
2023-02-13T03:26:26.393Z,21.94
2023-02-13T03:31:33.689Z,22.02
2023-02-13T03:36:41.124Z,22.13
2023-02-13T03:41:48.356Z,22.15
2023-02-13T03:46:55.608Z,22.17
2023-02-13T03:52:02.879Z,22.31
2023-02-13T03:57:10.304Z,22.32
2023-02-13T04:02:17.643Z,22.36
2023-02-13T04:07:24.806Z,22.47
2023-02-13T04:12:31.949Z,22.56
2023-02-13T04:17:39.165Z,22.62
2023-02-13T04:22:46.320Z,22.67
2023-02-13T04:27:53.508Z,22.78
2023-02-13T04:33:00.735Z,22.92
2023-02-13T04:38:08.038Z,22.96
2023-02-13T04:43:17.584Z,22.98
2023-02-13T04:48:24.821Z,22.92
2023-02-13T04:53:31.945Z,22.78
2023-02-13T04:58:39.140Z,22.60
2023-02-13T05:03:46.338Z,22.60
2023-02-13T05:08:53.612Z,22.56
2023-02-13T05:14:00.804Z,22.58
2023-02-13T05:19:08.000Z,22.69
2023-02-13T05:24:15.159Z,22.89
2023-02-13T05:29:22.341Z,22.80
2023-02-13T05:34:29.698Z,22.82
2023-02-13T05:39:36.850Z,22.98
2023-02-13T05:44:44.129Z,23.09
2023-02-13T05:49:51.347Z,23.15
2023-02-13T05:54:58.619Z,23.30
2023-02-13T06:00:05.785Z,23.28
2023-02-13T06:05:13.070Z,23.07
2023-02-13T06:10:20.204Z,23.37
2023-02-13T06:15:28.032Z,23.08
2023-02-13T06:20:35.261Z,22.92
2023-02-13T06:25:42.510Z,22.87
2023-02-13T06:30:49.816Z,22.99
2023-02-13T06:35:57.023Z,23.06
2023-02-13T06:41:04.223Z,22.95
2023-02-13T06:46:11.505Z,22.94
2023-02-13T06:51:18.718Z,22.96
2023-02-13T06:56:25.939Z,22.97
2023-02-13T07:01:33.161Z,22.94
2023-02-13T07:06:40.405Z,22.89
2023-02-13T07:11:47.628Z,22.87
2023-02-13T07:16:54.832Z,22.89
2023-02-13T07:22:02.061Z,22.94
2023-02-13T07:27:09.230Z,22.95
2023-02-13T07:32:16.404Z,22.97
2023-02-13T07:37:23.697Z,23.31
2023-02-13T07:42:30.889Z,23.08
2023-02-13T07:47:38.123Z,22.98
2023-02-13T07:52:45.332Z,23.00
2023-02-13T07:57:52.492Z,23.00
2023-02-13T08:02:59.722Z,23.00
2023-02-13T08:08:06.966Z,23.00
2023-02-13T08:13:14.182Z,22.99
2023-02-13T08:18:21.606Z,22.97
2023-02-13T08:23:29.092Z,23.02
2023-02-13T08:28:36.080Z,23.00
2023-02-13T08:33:43.300Z,23.00
2023-02-13T08:38:50.480Z,23.00
2023-02-13T08:43:57.656Z,22.99
2023-02-13T08:49:04.833Z,24.07
2023-02-13T08:54:12.082Z,26.68
2023-02-13T08:59:19.205Z,25.41
2023-02-13T09:04:26.419Z,25.03
2023-02-13T09:09:33.688Z,24.70
2023-02-13T09:14:40.755Z,24.56
2023-02-13T09:19:47.943Z,24.41
2023-02-13T09:24:55.169Z,24.25
2023-02-13T09:30:02.322Z,24.19
2023-02-13T09:35:09.506Z,24.12
2023-02-13T09:40:16.725Z,24.06
2023-02-13T09:45:23.931Z,23.99
2023-02-13T09:50:31.201Z,23.93
2023-02-13T09:55:38.397Z,23.92
2023-02-13T10:00:45.598Z,23.86
2023-02-13T10:05:55.182Z,23.84
2023-02-13T10:11:00.026Z,23.81
2023-02-13T10:16:08.004Z,23.77
2023-02-13T10:21:15.069Z,23.75
2023-02-13T10:26:22.604Z,23.73
2023-02-13T10:31:29.866Z,23.75
2023-02-13T10:36:36.934Z,23.78
2023-02-13T10:41:44.154Z,23.77
2023-02-13T10:46:51.388Z,23.80
2023-02-13T10:51:58.468Z,23.75
2023-02-13T10:57:05.703Z,23.75
2023-02-13T11:02:12.863Z,23.76
2023-02-13T11:07:20.039Z,23.74
2023-02-13T11:12:27.440Z,23.75
2023-02-13T11:17:34.592Z,23.73
2023-02-13T11:22:41.780Z,23.79
2023-02-13T11:27:49.010Z,23.80
2023-02-13T11:32:56.166Z,23.78
2023-02-13T11:38:04.317Z,23.76
2023-02-13T11:43:11.568Z,23.81
2023-02-13T11:48:18.721Z,23.80
2023-02-13T11:53:25.929Z,23.82
2023-02-13T11:58:33.192Z,23.86
2023-02-13T12:03:40.388Z,23.90
2023-02-13T12:08:47.576Z,23.90
2023-02-13T12:13:54.802Z,23.98
2023-02-13T12:19:02.031Z,24.00
2023-02-13T12:24:09.197Z,24.02
2023-02-13T12:29:16.478Z,24.06
2023-02-13T12:34:23.582Z,24.06
2023-02-13T12:39:30.770Z,24.11
2023-02-13T12:44:38.063Z,24.07
2023-02-13T12:49:45.221Z,24.04
2023-02-13T12:54:52.414Z,24.12
2023-02-13T12:59:59.668Z,24.04
2023-02-13T13:05:06.841Z,24.04
2023-02-13T13:10:14.097Z,24.12
2023-02-13T13:15:21.351Z,24.17
2023-02-13T13:20:28.522Z,24.21
2023-02-13T13:25:35.806Z,24.22
2023-02-13T13:30:43.179Z,24.28
2023-02-13T13:35:50.376Z,24.32
2023-02-13T13:40:57.884Z,24.43
2023-02-13T13:46:04.803Z,24.46
2023-02-13T13:51:11.938Z,24.52
2023-02-13T13:56:19.212Z,24.53
2023-02-13T14:01:26.528Z,24.61
2023-02-13T14:06:33.591Z,24.55
2023-02-13T14:11:40.790Z,24.60
2023-02-13T14:16:48.014Z,24.61
2023-02-13T14:21:55.142Z,24.71
2023-02-13T14:27:06.241Z,24.73
2023-02-13T14:32:09.714Z,24.80
2023-02-13T14:37:16.714Z,24.75
2023-02-13T14:42:23.876Z,24.87
2023-02-13T14:47:31.168Z,24.92
2023-02-13T14:52:38.355Z,24.85
2023-02-13T14:57:45.548Z,24.93
2023-02-13T15:02:52.750Z,24.96
2023-02-13T15:07:59.907Z,24.94
2023-02-13T15:13:07.092Z,24.88
2023-02-13T15:18:14.402Z,24.89
2023-02-13T15:23:21.655Z,24.94
2023-02-13T15:28:28.810Z,25.00
2023-02-13T15:33:38.327Z,24.99
2023-02-13T15:38:43.233Z,25.05
2023-02-13T15:43:50.798Z,25.19
2023-02-13T15:48:58.099Z,25.17
2023-02-13T15:54:05.579Z,25.27
2023-02-13T15:59:13.195Z,25.24
2023-02-13T16:04:20.554Z,25.32
2023-02-13T16:09:27.689Z,25.34
2023-02-13T16:14:35.225Z,25.32
2023-02-13T16:19:42.864Z,25.30
2023-02-13T16:24:50.176Z,25.41
2023-02-13T16:29:57.393Z,25.40
2023-02-13T16:35:04.661Z,25.40
2023-02-13T16:40:11.926Z,25.45
2023-02-13T16:45:19.382Z,25.48
2023-02-13T16:50:26.720Z,25.61
2023-02-13T16:55:33.911Z,25.62
2023-02-13T17:00:41.537Z,25.56
2023-02-13T17:05:55.730Z,25.63
2023-02-13T17:11:02.614Z,25.62
2023-02-13T17:16:10.642Z,25.67
2023-02-13T17:21:17.965Z,25.72
2023-02-13T17:26:25.710Z,25.78
2023-02-13T17:31:33.429Z,25.75
2023-02-13T17:36:40.669Z,25.92
2023-02-13T17:41:48.248Z,25.97
2023-02-13T17:46:55.857Z,25.96
2023-02-13T17:52:03.597Z,25.90
2023-02-13T17:57:11.186Z,25.85
2023-02-13T18:02:18.884Z,25.83
2023-02-13T18:07:26.447Z,25.83
2023-02-13T18:12:34.026Z,25.88
2023-02-13T18:17:41.655Z,25.89
2023-02-13T18:22:49.009Z,26.79
2023-02-13T18:27:56.466Z,26.76
2023-02-13T18:33:04.174Z,26.16
2023-02-13T18:38:11.819Z,26.07
2023-02-13T18:43:19.404Z,25.97
2023-02-13T18:48:27.125Z,25.75
2023-02-13T18:53:34.766Z,25.58
2023-02-13T18:58:42.325Z,25.41
2023-02-13T19:03:49.671Z,25.29
2023-02-13T19:08:56.945Z,25.19
2023-02-13T19:14:04.391Z,25.05
2023-02-13T19:19:11.893Z,24.91
2023-02-13T19:24:19.531Z,24.71
2023-02-13T19:29:26.830Z,24.64
2023-02-13T19:34:34.433Z,24.50
2023-02-13T19:39:42.142Z,24.44
2023-02-13T19:44:49.722Z,24.34
2023-02-13T19:49:57.580Z,24.27
2023-02-13T19:55:06.145Z,24.18
2023-02-13T20:00:13.939Z,24.21
2023-02-13T20:05:21.624Z,24.19
2023-02-13T20:10:29.501Z,24.83
2023-02-13T20:15:37.187Z,24.73
2023-02-13T20:20:44.556Z,24.71
2023-02-13T20:25:51.971Z,24.71
2023-02-13T20:30:59.831Z,25.09
2023-02-13T20:36:07.034Z,24.79
2023-02-13T20:41:14.676Z,25.00
2023-02-13T20:46:22.016Z,24.55
2023-02-13T20:51:29.568Z,24.40
2023-02-13T20:56:37.264Z,24.81
2023-02-13T21:01:44.899Z,24.62
2023-02-13T21:06:52.506Z,24.03
2023-02-13T21:12:00.249Z,24.18
2023-02-13T21:17:07.584Z,24.82
2023-02-13T21:22:15.043Z,24.71
2023-02-13T21:27:22.459Z,24.79
2023-02-13T21:32:29.917Z,24.48
2023-02-13T21:37:37.175Z,24.62
2023-02-13T21:42:44.720Z,24.40
2023-02-13T21:47:52.006Z,24.03
2023-02-13T21:52:59.295Z,23.97
2023-02-13T21:58:06.511Z,24.01
2023-02-13T22:03:14.191Z,23.72
2023-02-13T22:08:21.348Z,23.79
2023-02-13T22:13:28.566Z,23.66
2023-02-13T22:18:35.729Z,23.56
2023-02-13T22:23:42.959Z,23.85
2023-02-13T22:28:50.234Z,24.05
2023-02-13T22:34:05.551Z,23.76
2023-02-13T22:39:04.587Z,23.77
2023-02-13T22:44:11.888Z,23.78
2023-02-13T22:49:18.936Z,23.59
2023-02-13T22:54:26.118Z,23.57
2023-02-13T22:59:33.435Z,23.54
2023-02-13T23:04:40.746Z,23.27
2023-02-13T23:09:47.790Z,23.59
2023-02-13T23:14:55.009Z,23.32
2023-02-13T23:20:02.162Z,23.47
2023-02-13T23:25:09.335Z,23.33
2023-02-13T23:30:16.593Z,22.75
2023-02-13T23:35:23.681Z,22.66
2023-02-13T23:40:30.974Z,22.90
2023-02-13T23:45:38.262Z,22.93
2023-02-13T23:50:45.431Z,22.97
2023-02-13T23:55:52.615Z,22.86
